sensor_id;sensor_type;location;lat;lon;timestamp;P1;durP1;ratioP1;P2;durP2;ratioP2
50976;SDS011;36992;48.200;12.418;2024-02-15T00:01:44;3.90;;;1.08;;
50976;SDS011;36992;48.200;12.418;2024-02-15T00:04:10;3.20;;;1.20;;
50976;SDS011;36992;48.200;12.418;2024-02-15T00:06:37;2.83;;;1.30;;
50976;SDS011;36992;48.200;12.418;2024-02-15T00:09:04;2.92;;;1.13;;
50976;SDS011;36992;48.200;12.418;2024-02-15T00:11:31;2.72;;;1.10;;
50976;SDS011;36992;48.200;12.418;2024-02-15T00:13:58;2.88;;;1.20;;
50976;SDS011;36992;48.200;12.418;2024-02-15T00:16:25;3.58;;;0.90;;
50976;SDS011;36992;48.200;12.418;2024-02-15T00:18:52;3.00;;;1.20;;
50976;SDS011;36992;48.200;12.418;2024-02-15T00:21:20;2.50;;;0.80;;
50976;SDS011;36992;48.200;12.418;2024-02-15T00:23:46;2.97;;;0.90;;
50976;SDS011;36992;48.200;12.418;2024-02-15T00:26:14;3.00;;;1.00;;
50976;SDS011;36992;48.200;12.418;2024-02-15T00:28:41;3.10;;;1.00;;
50976;SDS011;36992;48.200;12.418;2024-02-15T00:31:07;3.13;;;1.10;;
50976;SDS011;36992;48.200;12.418;2024-02-15T00:33:34;3.50;;;1.02;;
50976;SDS011;36992;48.200;12.418;2024-02-15T00:36:01;2.70;;;1.20;;
50976;SDS011;36992;48.200;12.418;2024-02-15T00:38:29;3.25;;;1.00;;
50976;SDS011;36992;48.200;12.418;2024-02-15T00:40:56;2.70;;;0.80;;
50976;SDS011;36992;48.200;12.418;2024-02-15T00:43:26;4.72;;;1.77;;
50976;SDS011;36992;48.200;12.418;2024-02-15T00:45:53;3.47;;;1.15;;
50976;SDS011;36992;48.200;12.418;2024-02-15T00:48:19;2.53;;;0.85;;
50976;SDS011;36992;48.200;12.418;2024-02-15T00:50:46;3.38;;;1.00;;
50976;SDS011;36992;48.200;12.418;2024-02-15T00:53:13;3.83;;;1.83;;
50976;SDS011;36992;48.200;12.418;2024-02-15T00:55:41;3.20;;;1.10;;
50976;SDS011;36992;48.200;12.418;2024-02-15T00:58:08;2.80;;;1.02;;
50976;SDS011;36992;48.200;12.418;2024-02-15T01:00:36;2.30;;;0.93;;
50976;SDS011;36992;48.200;12.418;2024-02-15T01:03:03;2.63;;;1.05;;
50976;SDS011;36992;48.200;12.418;2024-02-15T01:05:30;2.88;;;1.13;;
50976;SDS011;36992;48.200;12.418;2024-02-15T01:07:56;2.95;;;1.33;;
50976;SDS011;36992;48.200;12.418;2024-02-15T01:10:23;3.03;;;1.27;;
50976;SDS011;36992;48.200;12.418;2024-02-15T01:12:50;2.92;;;1.17;;
50976;SDS011;36992;48.200;12.418;2024-02-15T01:15:16;2.30;;;0.80;;
50976;SDS011;36992;48.200;12.418;2024-02-15T01:17:46;2.05;;;0.80;;
50976;SDS011;36992;48.200;12.418;2024-02-15T01:20:12;2.28;;;0.77;;
50976;SDS011;36992;48.200;12.418;2024-02-15T01:22:39;2.20;;;1.00;;
50976;SDS011;36992;48.200;12.418;2024-02-15T01:25:06;2.78;;;0.93;;
50976;SDS011;36992;48.200;12.418;2024-02-15T01:27:33;3.15;;;0.90;;
50976;SDS011;36992;48.200;12.418;2024-02-15T01:30:01;4.18;;;1.30;;
50976;SDS011;36992;48.200;12.418;2024-02-15T01:32:28;6.22;;;2.17;;
50976;SDS011;36992;48.200;12.418;2024-02-15T01:34:57;2.05;;;0.80;;
50976;SDS011;36992;48.200;12.418;2024-02-15T01:37:23;2.85;;;1.08;;
50976;SDS011;36992;48.200;12.418;2024-02-15T01:39:50;4.20;;;0.80;;
50976;SDS011;36992;48.200;12.418;2024-02-15T01:42:17;2.13;;;1.05;;
50976;SDS011;36992;48.200;12.418;2024-02-15T01:44:44;2.95;;;0.88;;
50976;SDS011;36992;48.200;12.418;2024-02-15T01:47:12;2.75;;;0.82;;
50976;SDS011;36992;48.200;12.418;2024-02-15T01:49:40;3.00;;;1.13;;
50976;SDS011;36992;48.200;12.418;2024-02-15T01:52:08;3.25;;;0.95;;
50976;SDS011;36992;48.200;12.418;2024-02-15T01:54:35;1.85;;;0.70;;
50976;SDS011;36992;48.200;12.418;2024-02-15T01:57:03;5.30;;;0.77;;
50976;SDS011;36992;48.200;12.418;2024-02-15T01:59:31;2.45;;;0.73;;
50976;SDS011;36992;48.200;12.418;2024-02-15T02:01:58;2.20;;;0.80;;
50976;SDS011;36992;48.200;12.418;2024-02-15T02:04:24;2.67;;;0.70;;
50976;SDS011;36992;48.200;12.418;2024-02-15T02:06:51;2.05;;;0.75;;
50976;SDS011;36992;48.200;12.418;2024-02-15T02:09:22;3.00;;;0.98;;
50976;SDS011;36992;48.200;12.418;2024-02-15T02:11:48;1.80;;;0.80;;
50976;SDS011;36992;48.200;12.418;2024-02-15T02:14:15;2.90;;;0.85;;
50976;SDS011;36992;48.200;12.418;2024-02-15T02:16:42;1.55;;;0.60;;
50976;SDS011;36992;48.200;12.418;2024-02-15T02:19:11;3.20;;;0.95;;
50976;SDS011;36992;48.200;12.418;2024-02-15T02:21:38;3.45;;;1.20;;
50976;SDS011;36992;48.200;12.418;2024-02-15T02:24:08;3.00;;;0.80;;
50976;SDS011;36992;48.200;12.418;2024-02-15T02:26:40;2.03;;;0.70;;
50976;SDS011;36992;48.200;12.418;2024-02-15T02:29:08;1.60;;;0.50;;
50976;SDS011;36992;48.200;12.418;2024-02-15T02:31:35;3.60;;;1.42;;
50976;SDS011;36992;48.200;12.418;2024-02-15T02:34:02;3.03;;;0.90;;
50976;SDS011;36992;48.200;12.418;2024-02-15T02:36:31;3.85;;;1.20;;
50976;SDS011;36992;48.200;12.418;2024-02-15T02:38:58;2.80;;;0.95;;
50976;SDS011;36992;48.200;12.418;2024-02-15T02:41:25;2.92;;;1.00;;
50976;SDS011;36992;48.200;12.418;2024-02-15T02:43:54;2.05;;;0.60;;
50976;SDS011;36992;48.200;12.418;2024-02-15T02:46:21;1.95;;;0.70;;
50976;SDS011;36992;48.200;12.418;2024-02-15T02:48:47;1.92;;;0.60;;
50976;SDS011;36992;48.200;12.418;2024-02-15T02:51:14;4.30;;;0.98;;
50976;SDS011;36992;48.200;12.418;2024-02-15T02:53:42;3.67;;;1.15;;
50976;SDS011;36992;48.200;12.418;2024-02-15T02:56:08;2.53;;;0.90;;
50976;SDS011;36992;48.200;12.418;2024-02-15T02:58:35;2.25;;;0.77;;
50976;SDS011;36992;48.200;12.418;2024-02-15T03:01:03;3.22;;;0.80;;
50976;SDS011;36992;48.200;12.418;2024-02-15T03:03:29;1.75;;;0.63;;
50976;SDS011;36992;48.200;12.418;2024-02-15T03:05:56;3.60;;;0.80;;
50976;SDS011;36992;48.200;12.418;2024-02-15T03:08:23;2.22;;;0.77;;
50976;SDS011;36992;48.200;12.418;2024-02-15T03:10:50;1.85;;;0.82;;
50976;SDS011;36992;48.200;12.418;2024-02-15T03:13:17;1.75;;;0.57;;
50976;SDS011;36992;48.200;12.418;2024-02-15T03:15:45;2.25;;;1.15;;
50976;SDS011;36992;48.200;12.418;2024-02-15T03:18:14;3.97;;;0.85;;
50976;SDS011;36992;48.200;12.418;2024-02-15T03:20:41;1.75;;;0.95;;
50976;SDS011;36992;48.200;12.418;2024-02-15T03:23:07;2.67;;;1.00;;
50976;SDS011;36992;48.200;12.418;2024-02-15T03:25:34;2.50;;;1.00;;
50976;SDS011;36992;48.200;12.418;2024-02-15T03:28:00;3.13;;;0.80;;
50976;SDS011;36992;48.200;12.418;2024-02-15T03:30:30;2.85;;;0.80;;
50976;SDS011;36992;48.200;12.418;2024-02-15T03:32:57;2.00;;;0.70;;
50976;SDS011;36992;48.200;12.418;2024-02-15T03:35:26;2.67;;;1.00;;
50976;SDS011;36992;48.200;12.418;2024-02-15T03:37:56;2.03;;;0.75;;
50976;SDS011;36992;48.200;12.418;2024-02-15T03:40:23;2.80;;;0.77;;
50976;SDS011;36992;48.200;12.418;2024-02-15T03:42:51;1.60;;;0.57;;
50976;SDS011;36992;48.200;12.418;2024-02-15T03:45:18;1.40;;;0.70;;
50976;SDS011;36992;48.200;12.418;2024-02-15T03:47:44;2.50;;;0.80;;
50976;SDS011;36992;48.200;12.418;2024-02-15T03:50:11;2.22;;;0.70;;
50976;SDS011;36992;48.200;12.418;2024-02-15T03:52:41;1.65;;;0.63;;
50976;SDS011;36992;48.200;12.418;2024-02-15T03:55:08;2.33;;;0.93;;
50976;SDS011;36992;48.200;12.418;2024-02-15T03:57:35;5.32;;;0.98;;
50976;SDS011;36992;48.200;12.418;2024-02-15T04:00:05;2.30;;;0.70;;
50976;SDS011;36992;48.200;12.418;2024-02-15T04:02:33;2.60;;;0.95;;
50976;SDS011;36992;48.200;12.418;2024-02-15T04:05:00;3.90;;;0.90;;
50976;SDS011;36992;48.200;12.418;2024-02-15T04:07:30;2.63;;;0.75;;
50976;SDS011;36992;48.200;12.418;2024-02-15T04:09:58;2.13;;;0.70;;
50976;SDS011;36992;48.200;12.418;2024-02-15T04:12:25;2.17;;;0.75;;
50976;SDS011;36992;48.200;12.418;2024-02-15T04:14:52;2.58;;;0.63;;
50976;SDS011;36992;48.200;12.418;2024-02-15T04:17:21;1.63;;;0.70;;
50976;SDS011;36992;48.200;12.418;2024-02-15T04:19:47;1.98;;;0.90;;
50976;SDS011;36992;48.200;12.418;2024-02-15T04:22:15;2.08;;;0.68;;
50976;SDS011;36992;48.200;12.418;2024-02-15T04:24:42;2.70;;;0.85;;
50976;SDS011;36992;48.200;12.418;2024-02-15T04:27:11;2.42;;;0.70;;
50976;SDS011;36992;48.200;12.418;2024-02-15T04:29:38;3.28;;;1.27;;
50976;SDS011;36992;48.200;12.418;2024-02-15T04:32:06;2.25;;;0.70;;
50976;SDS011;36992;48.200;12.418;2024-02-15T04:34:35;2.20;;;0.93;;
50976;SDS011;36992;48.200;12.418;2024-02-15T04:37:02;2.65;;;0.90;;
50976;SDS011;36992;48.200;12.418;2024-02-15T04:39:31;3.25;;;0.55;;
50976;SDS011;36992;48.200;12.418;2024-02-15T04:41:58;2.58;;;0.70;;
50976;SDS011;36992;48.200;12.418;2024-02-15T04:44:26;3.58;;;0.73;;
50976;SDS011;36992;48.200;12.418;2024-02-15T04:46:53;3.38;;;0.60;;
50976;SDS011;36992;48.200;12.418;2024-02-15T04:49:19;1.58;;;0.50;;
50976;SDS011;36992;48.200;12.418;2024-02-15T04:51:47;2.47;;;0.70;;
50976;SDS011;36992;48.200;12.418;2024-02-15T04:54:14;2.85;;;0.68;;
50976;SDS011;36992;48.200;12.418;2024-02-15T04:56:41;2.08;;;0.63;;
50976;SDS011;36992;48.200;12.418;2024-02-15T04:59:08;3.47;;;1.02;;
50976;SDS011;36992;48.200;12.418;2024-02-15T05:01:38;3.30;;;0.50;;
50976;SDS011;36992;48.200;12.418;2024-02-15T05:04:07;2.90;;;0.90;;
50976;SDS011;36992;48.200;12.418;2024-02-15T05:06:34;4.05;;;1.10;;
50976;SDS011;36992;48.200;12.418;2024-02-15T05:09:01;2.72;;;0.70;;
50976;SDS011;36992;48.200;12.418;2024-02-15T05:11:32;2.13;;;0.70;;
50976;SDS011;36992;48.200;12.418;2024-02-15T05:14:00;2.08;;;0.85;;
50976;SDS011;36992;48.200;12.418;2024-02-15T05:16:27;1.85;;;0.75;;
50976;SDS011;36992;48.200;12.418;2024-02-15T05:18:55;2.15;;;0.73;;
50976;SDS011;36992;48.200;12.418;2024-02-15T05:21:21;2.45;;;0.80;;
50976;SDS011;36992;48.200;12.418;2024-02-15T05:23:48;2.20;;;0.63;;
50976;SDS011;36992;48.200;12.418;2024-02-15T05:26:14;1.88;;;0.60;;
50976;SDS011;36992;48.200;12.418;2024-02-15T05:28:41;3.67;;;0.98;;
50976;SDS011;36992;48.200;12.418;2024-02-15T05:31:12;3.25;;;1.10;;
50976;SDS011;36992;48.200;12.418;2024-02-15T05:33:41;1.80;;;0.70;;
50976;SDS011;36992;48.200;12.418;2024-02-15T05:36:10;2.30;;;0.90;;
50976;SDS011;36992;48.200;12.418;2024-02-15T05:38:37;2.60;;;1.08;;
50976;SDS011;36992;48.200;12.418;2024-02-15T05:41:04;3.80;;;0.55;;
50976;SDS011;36992;48.200;12.418;2024-02-15T05:43:32;2.50;;;0.70;;
50976;SDS011;36992;48.200;12.418;2024-02-15T05:45:59;3.72;;;0.70;;
50976;SDS011;36992;48.200;12.418;2024-02-15T05:48:26;3.38;;;0.73;;
50976;SDS011;36992;48.200;12.418;2024-02-15T05:50:52;2.45;;;0.90;;
50976;SDS011;36992;48.200;12.418;2024-02-15T05:53:21;2.40;;;0.85;;
50976;SDS011;36992;48.200;12.418;2024-02-15T05:55:48;2.85;;;0.90;;
50976;SDS011;36992;48.200;12.418;2024-02-15T05:58:14;3.10;;;1.00;;
50976;SDS011;36992;48.200;12.418;2024-02-15T06:00:42;2.75;;;0.65;;
50976;SDS011;36992;48.200;12.418;2024-02-15T06:03:09;1.63;;;0.68;;
50976;SDS011;36992;48.200;12.418;2024-02-15T06:05:37;2.58;;;0.90;;
50976;SDS011;36992;48.200;12.418;2024-02-15T06:08:04;2.10;;;0.70;;
50976;SDS011;36992;48.200;12.418;2024-02-15T06:10:33;2.35;;;0.93;;
50976;SDS011;36992;48.200;12.418;2024-02-15T06:12:59;3.88;;;0.70;;
50976;SDS011;36992;48.200;12.418;2024-02-15T06:15:26;2.10;;;0.75;;
50976;SDS011;36992;48.200;12.418;2024-02-15T06:17:52;2.22;;;0.63;;
50976;SDS011;36992;48.200;12.418;2024-02-15T06:20:19;2.50;;;1.00;;
50976;SDS011;36992;48.200;12.418;2024-02-15T06:22:46;2.58;;;1.08;;
50976;SDS011;36992;48.200;12.418;2024-02-15T06:25:13;2.17;;;0.85;;
50976;SDS011;36992;48.200;12.418;2024-02-15T06:27:41;2.63;;;0.80;;
50976;SDS011;36992;48.200;12.418;2024-02-15T06:30:08;3.05;;;1.13;;
50976;SDS011;36992;48.200;12.418;2024-02-15T06:35:38;2.10;;;0.50;;
50976;SDS011;36992;48.200;12.418;2024-02-15T06:38:22;2.08;;;0.70;;
50976;SDS011;36992;48.200;12.418;2024-02-15T06:41:06;3.03;;;0.60;;
50976;SDS011;36992;48.200;12.418;2024-02-15T06:43:35;1.40;;;0.50;;
50976;SDS011;36992;48.200;12.418;2024-02-15T06:46:01;1.90;;;0.50;;
50976;SDS011;36992;48.200;12.418;2024-02-15T06:48:28;2.03;;;0.50;;
50976;SDS011;36992;48.200;12.418;2024-02-15T06:50:56;2.88;;;0.60;;
50976;SDS011;36992;48.200;12.418;2024-02-15T06:53:23;2.03;;;0.70;;
50976;SDS011;36992;48.200;12.418;2024-02-15T06:55:49;1.35;;;0.43;;
50976;SDS011;36992;48.200;12.418;2024-02-15T06:58:16;3.75;;;0.85;;
50976;SDS011;36992;48.200;12.418;2024-02-15T07:00:44;1.90;;;0.60;;
50976;SDS011;36992;48.200;12.418;2024-02-15T07:03:11;2.05;;;0.70;;
50976;SDS011;36992;48.200;12.418;2024-02-15T07:05:37;1.92;;;0.73;;
50976;SDS011;36992;48.200;12.418;2024-02-15T07:08:06;1.98;;;0.60;;
50976;SDS011;36992;48.200;12.418;2024-02-15T07:10:36;2.58;;;0.82;;
50976;SDS011;36992;48.200;12.418;2024-02-15T07:13:03;2.63;;;0.70;;
50976;SDS011;36992;48.200;12.418;2024-02-15T07:15:31;2.72;;;0.93;;
50976;SDS011;36992;48.200;12.418;2024-02-15T07:17:59;2.08;;;0.77;;
50976;SDS011;36992;48.200;12.418;2024-02-15T07:20:26;2.05;;;0.60;;
50976;SDS011;36992;48.200;12.418;2024-02-15T07:22:52;2.20;;;0.70;;
50976;SDS011;36992;48.200;12.418;2024-02-15T07:25:19;2.17;;;0.90;;
50976;SDS011;36992;48.200;12.418;2024-02-15T07:27:45;1.98;;;0.60;;
50976;SDS011;36992;48.200;12.418;2024-02-15T07:30:12;1.70;;;0.60;;
50976;SDS011;36992;48.200;12.418;2024-02-15T07:32:39;2.80;;;0.80;;
50976;SDS011;36992;48.200;12.418;2024-02-15T07:35:08;3.67;;;1.05;;
50976;SDS011;36992;48.200;12.418;2024-02-15T07:37:35;2.47;;;0.93;;
50976;SDS011;36992;48.200;12.418;2024-02-15T07:40:01;2.78;;;0.80;;
50976;SDS011;36992;48.200;12.418;2024-02-15T07:42:29;1.80;;;0.60;;
50976;SDS011;36992;48.200;12.418;2024-02-15T07:44:56;2.75;;;1.35;;
50976;SDS011;36992;48.200;12.418;2024-02-15T07:47:22;3.88;;;0.95;;
50976;SDS011;36992;48.200;12.418;2024-02-15T07:49:49;2.03;;;0.80;;
50976;SDS011;36992;48.200;12.418;2024-02-15T07:52:17;4.70;;;1.17;;
50976;SDS011;36992;48.200;12.418;2024-02-15T07:54:44;4.40;;;1.92;;
50976;SDS011;36992;48.200;12.418;2024-02-15T07:57:11;4.13;;;0.95;;
50976;SDS011;36992;48.200;12.418;2024-02-15T07:59:39;2.53;;;0.85;;
50976;SDS011;36992;48.200;12.418;2024-02-15T08:02:05;2.15;;;0.90;;
50976;SDS011;36992;48.200;12.418;2024-02-15T08:04:32;2.67;;;0.70;;
50976;SDS011;36992;48.200;12.418;2024-02-15T08:06:59;2.42;;;0.95;;
50976;SDS011;36992;48.200;12.418;2024-02-15T08:09:27;2.75;;;1.02;;
50976;SDS011;36992;48.200;12.418;2024-02-15T08:11:53;2.72;;;1.20;;
50976;SDS011;36992;48.200;12.418;2024-02-15T08:14:21;2.65;;;0.98;;
50976;SDS011;36992;48.200;12.418;2024-02-15T08:16:47;2.35;;;0.98;;
50976;SDS011;36992;48.200;12.418;2024-02-15T08:19:14;1.98;;;0.73;;
50976;SDS011;36992;48.200;12.418;2024-02-15T08:21:40;3.45;;;0.80;;
50976;SDS011;36992;48.200;12.418;2024-02-15T08:24:11;3.08;;;1.08;;
50976;SDS011;36992;48.200;12.418;2024-02-15T08:26:39;4.03;;;0.70;;
50976;SDS011;36992;48.200;12.418;2024-02-15T08:29:06;3.25;;;0.60;;
50976;SDS011;36992;48.200;12.418;2024-02-15T08:31:34;3.55;;;0.98;;
50976;SDS011;36992;48.200;12.418;2024-02-15T08:34:01;1.42;;;0.63;;
50976;SDS011;36992;48.200;12.418;2024-02-15T08:36:30;2.38;;;0.82;;
50976;SDS011;36992;48.200;12.418;2024-02-15T08:38:57;3.33;;;0.88;;
50976;SDS011;36992;48.200;12.418;2024-02-15T08:41:25;2.60;;;1.00;;
50976;SDS011;36992;48.200;12.418;2024-02-15T08:43:53;2.30;;;0.90;;
50976;SDS011;36992;48.200;12.418;2024-02-15T08:46:21;4.93;;;0.98;;
50976;SDS011;36992;48.200;12.418;2024-02-15T08:48:50;3.17;;;1.17;;
50976;SDS011;36992;48.200;12.418;2024-02-15T08:51:16;4.00;;;1.30;;
50976;SDS011;36992;48.200;12.418;2024-02-15T08:53:45;2.28;;;0.80;;
50976;SDS011;36992;48.200;12.418;2024-02-15T08:56:12;1.40;;;0.60;;
50976;SDS011;36992;48.200;12.418;2024-02-15T08:58:39;1.42;;;0.57;;
50976;SDS011;36992;48.200;12.418;2024-02-15T09:01:09;2.72;;;0.80;;
50976;SDS011;36992;48.200;12.418;2024-02-15T09:03:36;1.35;;;0.50;;
50976;SDS011;36992;48.200;12.418;2024-02-15T09:06:02;2.30;;;0.80;;
50976;SDS011;36992;48.200;12.418;2024-02-15T09:08:30;3.67;;;0.60;;
50976;SDS011;36992;48.200;12.418;2024-02-15T09:10:56;1.92;;;0.63;;
50976;SDS011;36992;48.200;12.418;2024-02-15T09:13:23;2.17;;;0.65;;
50976;SDS011;36992;48.200;12.418;2024-02-15T09:15:50;3.30;;;0.95;;
50976;SDS011;36992;48.200;12.418;2024-02-15T09:18:18;1.85;;;0.55;;
50976;SDS011;36992;48.200;12.418;2024-02-15T09:20:47;2.42;;;1.02;;
50976;SDS011;36992;48.200;12.418;2024-02-15T09:23:20;2.67;;;0.60;;
50976;SDS011;36992;48.200;12.418;2024-02-15T09:25:48;2.80;;;0.95;;
50976;SDS011;36992;48.200;12.418;2024-02-15T09:28:16;1.75;;;0.50;;
50976;SDS011;36992;48.200;12.418;2024-02-15T09:30:46;1.95;;;0.85;;
50976;SDS011;36992;48.200;12.418;2024-02-15T09:33:13;2.38;;;0.70;;
50976;SDS011;36992;48.200;12.418;2024-02-15T09:35:41;3.28;;;1.25;;
50976;SDS011;36992;48.200;12.418;2024-02-15T09:38:08;3.50;;;0.75;;
50976;SDS011;36992;48.200;12.418;2024-02-15T09:40:34;2.22;;;0.73;;
50976;SDS011;36992;48.200;12.418;2024-02-15T09:43:01;3.05;;;1.20;;
50976;SDS011;36992;48.200;12.418;2024-02-15T09:45:27;3.58;;;1.67;;
50976;SDS011;36992;48.200;12.418;2024-02-15T09:47:55;1.80;;;0.77;;
50976;SDS011;36992;48.200;12.418;2024-02-15T09:50:26;4.35;;;1.17;;
50976;SDS011;36992;48.200;12.418;2024-02-15T09:52:59;3.28;;;0.57;;
50976;SDS011;36992;48.200;12.418;2024-02-15T09:55:27;4.07;;;0.70;;
50976;SDS011;36992;48.200;12.418;2024-02-15T09:57:54;1.95;;;0.60;;
50976;SDS011;36992;48.200;12.418;2024-02-15T10:00:21;1.98;;;0.40;;
50976;SDS011;36992;48.200;12.418;2024-02-15T10:02:50;1.77;;;0.60;;
50976;SDS011;36992;48.200;12.418;2024-02-15T10:05:18;1.88;;;0.70;;
50976;SDS011;36992;48.200;12.418;2024-02-15T10:07:46;1.98;;;0.80;;
50976;SDS011;36992;48.200;12.418;2024-02-15T10:10:17;2.38;;;0.80;;
50976;SDS011;36992;48.200;12.418;2024-02-15T10:12:45;2.80;;;0.80;;
50976;SDS011;36992;48.200;12.418;2024-02-15T10:17:57;1.95;;;0.73;;
50976;SDS011;36992;48.200;12.418;2024-02-15T10:20:24;3.83;;;1.17;;
50976;SDS011;36992;48.200;12.418;2024-02-15T10:22:52;1.77;;;0.60;;
50976;SDS011;36992;48.200;12.418;2024-02-15T10:25:21;1.95;;;0.80;;
50976;SDS011;36992;48.200;12.418;2024-02-15T10:27:48;1.60;;;0.40;;
50976;SDS011;36992;48.200;12.418;2024-02-15T10:30:15;2.28;;;0.77;;
50976;SDS011;36992;48.200;12.418;2024-02-15T10:32:43;1.98;;;0.50;;
50976;SDS011;36992;48.200;12.418;2024-02-15T10:35:10;1.98;;;0.60;;
50976;SDS011;36992;48.200;12.418;2024-02-15T10:37:44;2.58;;;0.50;;
50976;SDS011;36992;48.200;12.418;2024-02-15T10:40:11;2.40;;;0.43;;
50976;SDS011;36992;48.200;12.418;2024-02-15T10:42:40;1.80;;;0.30;;
50976;SDS011;36992;48.200;12.418;2024-02-15T10:45:08;1.02;;;0.30;;
50976;SDS011;36992;48.200;12.418;2024-02-15T10:47:37;1.35;;;0.30;;
50976;SDS011;36992;48.200;12.418;2024-02-15T10:50:04;2.42;;;0.40;;
50976;SDS011;36992;48.200;12.418;2024-02-15T10:52:33;0.93;;;0.20;;
50976;SDS011;36992;48.200;12.418;2024-02-15T10:55:09;1.88;;;0.40;;
50976;SDS011;36992;48.200;12.418;2024-02-15T10:57:39;3.08;;;0.30;;
50976;SDS011;36992;48.200;12.418;2024-02-15T11:00:13;0.70;;;0.30;;
50976;SDS011;36992;48.200;12.418;2024-02-15T11:02:47;0.60;;;0.20;;
50976;SDS011;36992;48.200;12.418;2024-02-15T11:05:20;1.60;;;0.55;;
50976;SDS011;36992;48.200;12.418;2024-02-15T11:07:48;3.03;;;0.30;;
50976;SDS011;36992;48.200;12.418;2024-02-15T11:10:15;0.80;;;0.20;;
50976;SDS011;36992;48.200;12.418;2024-02-15T11:12:44;1.27;;;0.20;;
50976;SDS011;36992;48.200;12.418;2024-02-15T11:15:12;1.00;;;0.20;;
50976;SDS011;36992;48.200;12.418;2024-02-15T11:18:10;1.63;;;0.65;;
50976;SDS011;36992;48.200;12.418;2024-02-15T11:20:46;1.05;;;0.30;;
50976;SDS011;36992;48.200;12.418;2024-02-15T11:23:24;0.75;;;0.10;;
50976;SDS011;36992;48.200;12.418;2024-02-15T11:25:52;2.47;;;0.17;;
50976;SDS011;36992;48.200;12.418;2024-02-15T11:28:37;0.98;;;0.20;;
50976;SDS011;36992;48.200;12.418;2024-02-15T11:37:22;0.20;;;0.10;;
50976;SDS011;36992;48.200;12.418;2024-02-15T11:43:50;0.77;;;0.10;;
50976;SDS011;36992;48.200;12.418;2024-02-15T11:46:21;1.25;;;0.30;;
50976;SDS011;36992;48.200;12.418;2024-02-15T11:48:51;0.80;;;0.20;;
50976;SDS011;36992;48.200;12.418;2024-02-15T11:51:28;0.65;;;0.20;;
50976;SDS011;36992;48.200;12.418;2024-02-15T11:53:59;0.95;;;0.20;;
50976;SDS011;36992;48.200;12.418;2024-02-15T11:56:30;1.70;;;0.47;;
50976;SDS011;36992;48.200;12.418;2024-02-15T11:59:03;1.83;;;0.30;;
50976;SDS011;36992;48.200;12.418;2024-02-15T12:01:31;0.80;;;0.20;;
50976;SDS011;36992;48.200;12.418;2024-02-15T12:04:16;1.30;;;0.20;;
50976;SDS011;36992;48.200;12.418;2024-02-15T12:07:01;0.75;;;0.30;;
50976;SDS011;36992;48.200;12.418;2024-02-15T12:09:46;1.55;;;0.20;;
50976;SDS011;36992;48.200;12.418;2024-02-15T12:12:30;0.70;;;0.20;;
50976;SDS011;36992;48.200;12.418;2024-02-15T12:15:15;1.10;;;0.20;;
50976;SDS011;36992;48.200;12.418;2024-02-15T12:18:13;1.15;;;0.20;;
50976;SDS011;36992;48.200;12.418;2024-02-15T12:20:57;0.98;;;0.10;;
50976;SDS011;36992;48.200;12.418;2024-02-15T12:23:24;1.08;;;0.13;;
50976;SDS011;36992;48.200;12.418;2024-02-15T12:25:51;1.23;;;0.20;;
50976;SDS011;36992;48.200;12.418;2024-02-15T12:28:18;1.80;;;0.20;;
50976;SDS011;36992;48.200;12.418;2024-02-15T12:30:46;0.60;;;0.20;;
50976;SDS011;36992;48.200;12.418;2024-02-15T12:33:20;1.17;;;0.20;;
50976;SDS011;36992;48.200;12.418;2024-02-15T12:35:46;1.52;;;0.20;;
50976;SDS011;36992;48.200;12.418;2024-02-15T12:38:13;1.17;;;0.30;;
50976;SDS011;36992;48.200;12.418;2024-02-15T12:40:41;2.35;;;0.20;;
50976;SDS011;36992;48.200;12.418;2024-02-15T12:43:08;1.42;;;0.28;;
50976;SDS011;36992;48.200;12.418;2024-02-15T12:45:35;0.90;;;0.20;;
50976;SDS011;36992;48.200;12.418;2024-02-15T12:48:05;3.00;;;0.57;;
50976;SDS011;36992;48.200;12.418;2024-02-15T12:50:32;1.15;;;0.20;;
50976;SDS011;36992;48.200;12.418;2024-02-15T12:52:59;2.90;;;0.20;;
50976;SDS011;36992;48.200;12.418;2024-02-15T12:55:28;1.08;;;0.20;;
50976;SDS011;36992;48.200;12.418;2024-02-15T12:57:59;0.63;;;0.20;;
50976;SDS011;36992;48.200;12.418;2024-02-15T13:00:29;0.80;;;0.30;;
50976;SDS011;36992;48.200;12.418;2024-02-15T13:02:58;1.45;;;0.20;;
50976;SDS011;36992;48.200;12.418;2024-02-15T13:05:29;1.67;;;0.20;;
50976;SDS011;36992;48.200;12.418;2024-02-15T13:07:57;1.60;;;0.20;;
50976;SDS011;36992;48.200;12.418;2024-02-15T13:10:24;1.02;;;0.17;;
50976;SDS011;36992;48.200;12.418;2024-02-15T13:12:51;0.88;;;0.30;;
50976;SDS011;36992;48.200;12.418;2024-02-15T13:15:20;0.88;;;0.20;;
50976;SDS011;36992;48.200;12.418;2024-02-15T13:17:51;1.02;;;0.20;;
50976;SDS011;36992;48.200;12.418;2024-02-15T13:20:20;1.15;;;0.20;;
50976;SDS011;36992;48.200;12.418;2024-02-15T13:22:58;1.88;;;0.30;;
50976;SDS011;36992;48.200;12.418;2024-02-15T13:25:27;1.45;;;0.30;;
50976;SDS011;36992;48.200;12.418;2024-02-15T13:27:54;1.80;;;0.30;;
50976;SDS011;36992;48.200;12.418;2024-02-15T13:30:21;1.02;;;0.20;;
50976;SDS011;36992;48.200;12.418;2024-02-15T13:32:52;0.90;;;0.17;;
50976;SDS011;36992;48.200;12.418;2024-02-15T13:35:19;1.95;;;0.20;;
50976;SDS011;36992;48.200;12.418;2024-02-15T13:37:49;1.55;;;0.28;;
50976;SDS011;36992;48.200;12.418;2024-02-15T13:40:18;0.90;;;0.20;;
50976;SDS011;36992;48.200;12.418;2024-02-15T13:42:48;1.38;;;0.30;;
50976;SDS011;36992;48.200;12.418;2024-02-15T13:45:17;2.88;;;0.17;;
50976;SDS011;36992;48.200;12.418;2024-02-15T13:47:45;1.05;;;0.20;;
50976;SDS011;36992;48.200;12.418;2024-02-15T13:50:13;0.63;;;0.40;;
50976;SDS011;36992;48.200;12.418;2024-02-15T13:52:40;0.60;;;0.20;;
50976;SDS011;36992;48.200;12.418;2024-02-15T13:55:08;0.73;;;0.20;;
50976;SDS011;36992;48.200;12.418;2024-02-15T13:57:37;0.93;;;0.20;;
50976;SDS011;36992;48.200;12.418;2024-02-15T14:00:05;1.55;;;0.20;;
50976;SDS011;36992;48.200;12.418;2024-02-15T14:02:38;1.42;;;0.20;;
50976;SDS011;36992;48.200;12.418;2024-02-15T14:05:04;0.40;;;0.20;;
50976;SDS011;36992;48.200;12.418;2024-02-15T14:07:33;1.05;;;0.20;;
50976;SDS011;36992;48.200;12.418;2024-02-15T14:10:00;1.08;;;0.20;;
50976;SDS011;36992;48.200;12.418;2024-02-15T14:12:27;1.65;;;0.20;;
50976;SDS011;36992;48.200;12.418;2024-02-15T14:14:55;3.92;;;0.32;;
50976;SDS011;36992;48.200;12.418;2024-02-15T14:17:22;0.68;;;0.20;;
50976;SDS011;36992;48.200;12.418;2024-02-15T14:19:48;1.50;;;0.20;;
50976;SDS011;36992;48.200;12.418;2024-02-15T14:22:15;1.30;;;0.30;;
50976;SDS011;36992;48.200;12.418;2024-02-15T14:24:42;1.20;;;0.28;;
50976;SDS011;36992;48.200;12.418;2024-02-15T14:27:09;1.60;;;0.20;;
50976;SDS011;36992;48.200;12.418;2024-02-15T14:29:36;0.70;;;0.10;;
50976;SDS011;36992;48.200;12.418;2024-02-15T14:32:11;3.22;;;0.20;;
50976;SDS011;36992;48.200;12.418;2024-02-15T14:34:54;0.68;;;0.20;;
50976;SDS011;36992;48.200;12.418;2024-02-15T14:37:21;1.25;;;0.20;;
50976;SDS011;36992;48.200;12.418;2024-02-15T14:39:48;0.60;;;0.10;;
50976;SDS011;36992;48.200;12.418;2024-02-15T14:42:15;0.95;;;0.10;;
50976;SDS011;36992;48.200;12.418;2024-02-15T14:44:41;0.60;;;0.10;;
50976;SDS011;36992;48.200;12.418;2024-02-15T14:47:08;0.52;;;0.20;;
50976;SDS011;36992;48.200;12.418;2024-02-15T14:49:37;1.85;;;0.10;;
50976;SDS011;36992;48.200;12.418;2024-02-15T14:52:04;0.55;;;0.10;;
50976;SDS011;36992;48.200;12.418;2024-02-15T14:54:31;0.50;;;0.10;;
50976;SDS011;36992;48.200;12.418;2024-02-15T14:56:58;0.93;;;0.30;;